Time;durP1;ratioP1;P1;durP2;ratioP2;P2;SDS_P1;SDS_P2;PMS_P1;PMS_P2;Temp;Humidity;BMP_temperature;BMP_pressure;BME280_temperature;BME280_humidity;BME280_pressure;Samples;Min_cycle;Max_cycle;Signal;HPM_P1;HPM_P2
2021/12/11 00:00:24;;;;;;;;;7.50;2.25;;;;;6.88;82.00;100522.81;5038481;28;45491;-77
2021/12/11 00:03:13;;;;;;;;;6.50;2.50;;;;;6.86;82.17;100524.59;5038225;28;45339;-76
2021/12/11 00:05:40;;;;;;;;;3.50;2.00;;;;;6.72;82.32;100506.41;5038314;28;45357;-78
2021/12/11 00:08:08;;;;;;;;;2.00;2.00;;;;;6.52;82.70;100487.47;5038277;28;45457;-78
2021/12/11 00:10:46;;;;;;;;;3.00;2.00;;;;;6.73;82.76;100531.72;5038401;28;45316;-77
2021/12/11 00:13:22;;;;;;;;;2.25;2.00;;;;;6.70;83.00;100538.75;5038096;28;46630;-78
2021/12/11 00:15:49;;;;;;;;;5.50;1.50;;;;;6.65;83.62;100541.41;5037033;28;45365;-78
2021/12/11 00:18:24;;;;;;;;;2.75;2.75;;;;;6.54;83.29;100532.78;5038428;28;45378;-77
2021/12/11 00:21:03;;;;;;;;;4.50;3.00;;;;;6.51;83.96;100549.38;5038535;28;45370;-77
2021/12/11 00:23:36;;;;;;;;;7.25;4.75;;;;;6.53;84.11;100559.81;5037575;28;46379;-78
2021/12/11 00:26:02;;;;;;;;;1.00;1.00;;;;;6.42;83.78;100554.69;5038007;28;45497;-77
2021/12/11 00:28:28;;;;;;;;;5.50;3.50;;;;;6.49;84.08;100581.66;5038307;28;45352;-78
2021/12/11 00:30:54;;;;;;;;;5.00;3.00;;;;;6.40;84.12;100573.00;5037980;28;45453;-76
2021/12/11 00:33:31;;;;;;;;;2.25;2.25;;;;;6.37;84.51;100580.00;5037755;28;45362;-77
2021/12/11 00:35:57;;;;;;;;;4.00;4.00;;;;;6.34;84.47;100583.50;5037800;28;45215;-76
2021/12/11 00:38:33;;;;;;;;;2.00;2.00;;;;;6.37;84.72;100595.69;5037821;28;45387;-77
2021/12/11 00:41:02;;;;;;;;;4.75;4.00;;;;;6.31;84.87;100603.59;5038000;28;45513;-78
2021/12/11 00:43:33;;;;;;;;;2.50;2.50;;;;;6.23;85.07;100598.41;5037842;28;46464;-77
2021/12/11 00:45:59;;;;;;;;;2.50;2.25;;;;;6.26;85.40;100607.13;5037618;28;45449;-78
2021/12/11 00:48:29;;;;;;;;;6.75;1.50;;;;;6.28;85.10;100617.56;5037644;28;45242;-77
2021/12/11 00:51:08;;;;;;;;;6.25;2.50;;;;;6.21;85.36;100614.09;5037827;28;45346;-77
2021/12/11 00:53:41;;;;;;;;;8.50;3.00;;;;;6.17;85.20;100614.16;5037322;28;46249;-77
2021/12/11 00:56:17;;;;;;;;;4.50;3.00;;;;;6.21;85.36;100627.19;5037405;28;45177;-77
2021/12/11 00:58:44;;;;;;;;;4.00;3.00;;;;;5.90;85.37;100582.91;5037539;28;45311;-77
2021/12/11 01:01:14;;;;;;;;;3.50;1.50;;;;;6.09;85.51;100622.91;5037795;28;45270;-76
2021/12/11 01:04:13;;;;;;;;;3.00;2.00;;;;;6.08;85.84;100634.25;5037345;28;45438;-77
2021/12/11 01:07:03;;;;;;;;;2.50;1.25;;;;;6.03;86.36;100640.38;4995573;28;45375;-76
2021/12/11 01:09:37;;;;;;;;;6.00;2.00;;;;;6.03;86.28;100650.84;4995455;28;45513;-76
2021/12/11 01:12:18;;;;;;;;;2.00;2.00;;;;;5.71;86.39;100604.81;4995739;28;45433;-75
2021/12/11 01:15:10;;;;;;;;;14.00;10.25;;;;;5.97;86.35;100656.97;4995147;28;45502;-77
2021/12/11 01:17:47;;;;;;;;;3.25;0.00;;;;;5.93;86.36;100655.22;4995090;28;45295;-77
2021/12/11 01:20:44;;;;;;;;;2.75;2.00;;;;;5.90;87.40;100676.13;4995255;28;45355;-77
2021/12/11 01:23:16;;;;;;;;;4.00;2.00;;;;;5.84;87.13;100679.63;4990133;28;45430;-77
2021/12/11 01:25:42;;;;;;;;;6.00;2.00;;;;;5.83;87.04;100680.50;4995026;28;46418;-77
2021/12/11 01:28:08;;;;;;;;;2.75;1.75;;;;;5.77;87.52;100683.16;5000572;28;45233;-77
2021/12/11 01:30:42;;;;;;;;;6.25;3.00;;;;;5.80;87.49;100701.41;5001866;28;45346;-77
2021/12/11 01:33:09;;;;;;;;;6.00;2.00;;;;;5.74;87.86;100704.94;5002016;28;45402;-77
2021/12/11 01:35:35;;;;;;;;;5.25;3.00;;;;;5.59;87.36;100686.69;5001748;28;45534;-78
2021/12/11 01:38:17;;;;;;;;;7.50;2.00;;;;;5.75;87.32;100724.06;5001778;28;45915;-77
2021/12/11 01:40:46;;;;;;;;;7.25;3.25;;;;;5.72;87.73;100727.59;5001662;28;45538;-77
2021/12/11 01:43:12;;;;;;;;;5.25;2.25;;;;;5.63;87.68;100714.53;5039428;28;45431;-78
2021/12/11 01:45:46;;;;;;;;;1.00;1.00;;;;;5.70;87.92;100741.53;5043430;28;45468;-78
2021/12/11 01:48:19;;;;;;;;;1.25;1.25;;;;;5.65;87.93;100743.25;5043348;28;45531;-77
2021/12/11 01:50:51;;;;;;;;;2.25;2.00;;;;;5.66;88.35;100750.22;5043640;28;45445;-78
2021/12/11 01:53:21;;;;;;;;;2.00;1.00;;;;;5.58;87.75;100742.44;5043792;28;45386;-77
2021/12/11 01:55:54;;;;;;;;;3.00;2.75;;;;;5.63;88.01;100763.31;5043272;28;47355;-77
2021/12/11 01:58:34;;;;;;;;;5.50;2.00;;;;;5.60;88.29;100765.94;5043285;28;45173;-78
2021/12/11 02:01:07;;;;;;;;;2.25;1.25;;;;;5.61;88.18;100768.53;5043579;28;45343;-77
2021/12/11 02:03:33;;;;;;;;;2.50;2.00;;;;;5.54;88.15;100761.59;5043805;28;45418;-77
2021/12/11 02:05:59;;;;;;;;;3.00;2.00;;;;;5.45;88.40;100764.22;5043276;28;45427;-77
2021/12/11 02:08:32;;;;;;;;;8.00;3.00;;;;;5.54;89.36;100788.56;5043490;28;45299;-77
2021/12/11 02:11:03;;;;;;;;;2.00;2.00;;;;;5.54;88.74;100796.38;5043295;28;45457;-77
2021/12/11 02:13:46;;;;;;;;;2.00;2.00;;;;;5.44;88.74;100788.59;5043341;28;45223;-77
2021/12/11 02:16:43;;;;;;;;;3.75;2.00;;;;;5.50;89.45;100804.22;5043041;28;46100;-77
2021/12/11 02:19:32;;;;;;;;;2.00;0.50;;;;;5.50;88.99;100807.72;5043230;28;45493;-78
2021/12/11 02:22:00;;;;;;;;;2.25;2.25;;;;;5.50;89.35;100817.28;5043164;28;45430;-77
2021/12/11 02:24:33;;;;;;;;;7.75;4.00;;;;;5.45;89.23;100808.59;5043257;28;45486;-78
2021/12/11 02:27:04;;;;;;;;;4.00;1.25;;;;;5.45;89.00;100824.28;5043023;28;46229;-77
2021/12/11 02:29:41;;;;;;;;;8.75;2.50;;;;;5.39;89.81;100815.56;5042846;28;45430;-77
2021/12/11 02:32:26;;;;;;;;;8.00;2.00;;;;;5.50;89.62;100832.97;5043198;28;45330;-77
2021/12/11 02:35:24;;;;;;;;;3.00;1.75;;;;;5.52;89.50;100837.31;5043124;28;45565;-77
2021/12/11 02:37:56;;;;;;;;;3.50;1.00;;;;;5.45;89.11;100821.66;4980720;28;45686;-77
2021/12/11 02:40:21;;;;;;;;;2.00;2.00;;;;;5.51;89.22;100845.16;4977124;28;45236;-77
2021/12/11 02:43:00;;;;;;;;;1.00;1.00;;;;;5.46;89.10;100845.16;4978252;28;45451;-77
2021/12/11 02:45:29;;;;;;;;;3.25;1.75;;;;;5.48;89.27;100846.03;4978237;28;45694;-78
2021/12/11 02:48:04;;;;;;;;;2.00;2.00;;;;;5.39;88.96;100846.03;4977382;28;47660;-77
2021/12/11 02:50:36;;;;;;;;;3.75;2.25;;;;;5.42;88.25;100861.69;4977881;28;45276;-76
2021/12/11 02:53:08;;;;;;;;;2.00;2.00;;;;;5.36;89.13;100867.78;4978109;28;45278;-76
2021/12/11 02:55:47;;;;;;;;;1.75;1.75;;;;;5.38;89.31;100870.41;4977819;28;45357;-77
2021/12/11 02:58:23;;;;;;;;;2.00;2.00;;;;;5.37;89.72;100871.25;4977596;28;46176;-77
2021/12/11 03:00:53;;;;;;;;;6.50;2.75;;;;;5.34;89.36;100869.50;4977617;28;45334;-77
2021/12/11 03:03:29;;;;;;;;;4.00;1.00;;;;;5.32;89.25;100876.47;4977819;28;45370;-77
2021/12/11 03:06:07;;;;;;;;;3.75;2.00;;;;;5.26;89.32;100876.47;4977978;28;45285;-77
2021/12/11 03:08:33;;;;;;;;;2.00;2.00;;;;;5.26;89.84;100881.69;4976429;28;45830;-77
2021/12/11 03:11:05;;;;;;;;;7.00;2.25;;;;;5.24;89.83;100878.19;4976292;28;45445;-77
2021/12/11 03:13:34;;;;;;;;;5.75;2.00;;;;;5.20;90.19;100882.56;4991571;28;45396;-76
2021/12/11 03:16:00;;;;;;;;;3.00;1.00;;;;;5.27;89.53;100893.91;5039436;28;45476;-78
2021/12/11 03:18:25;;;;;;;;;3.25;3.00;;;;;5.25;89.81;100898.22;5039146;28;46171;-76
2021/12/11 03:20:52;;;;;;;;;3.75;2.00;;;;;5.32;90.21;100905.19;5039041;28;45397;-77
2021/12/11 03:23:17;;;;;;;;;2.25;2.00;;;;;5.32;89.71;100892.16;5039056;28;45413;-77
2021/12/11 03:25:44;;;;;;;;;3.25;2.00;;;;;5.44;89.14;100904.34;5039194;28;45491;-77
2021/12/11 03:28:10;;;;;;;;;7.00;2.25;;;;;5.50;89.23;100916.53;5038825;28;47398;-77
2021/12/11 03:30:41;;;;;;;;;6.75;2.00;;;;;5.54;89.20;100921.75;5038892;28;45436;-76
2021/12/11 03:33:12;;;;;;;;;6.25;4.00;;;;;5.50;88.66;100906.09;5038874;28;45355;-77
2021/12/11 03:35:39;;;;;;;;;4.75;3.00;;;;;5.64;88.75;100920.03;5038920;28;45493;-77
2021/12/11 03:38:06;;;;;;;;;3.50;1.00;;;;;5.62;88.42;100919.16;5038695;28;48158;-76
2021/12/11 03:40:33;;;;;;;;;5.75;1.25;;;;;5.68;88.33;100931.38;5038491;28;45396;-76
2021/12/11 03:43:01;;;;;;;;;3.50;3.00;;;;;5.66;88.33;100930.47;5038702;28;45269;-76
2021/12/11 03:45:32;;;;;;;;;2.50;2.25;;;;;5.61;88.86;100919.16;5038989;28;45405;-76
2021/12/11 03:48:03;;;;;;;;;3.00;1.00;;;;;5.64;88.66;100934.84;5038343;28;47045;-76
2021/12/11 03:50:29;;;;;;;;;7.25;5.50;;;;;5.56;88.26;100935.69;5038333;28;45574;-76
2021/12/11 03:52:55;;;;;;;;;2.50;2.00;;;;;5.54;88.49;100940.03;5038830;28;45273;-77
2021/12/11 03:55:27;;;;;;;;;6.00;2.00;;;;;5.47;87.71;100937.44;5038589;28;45523;-77
2021/12/11 03:57:58;;;;;;;;;1.50;1.50;;;;;5.43;88.85;100957.41;5038294;28;45493;-77
2021/12/11 04:00:26;;;;;;;;;2.00;2.00;;;;;5.28;89.05;100937.38;5038392;28;45328;-76
2021/12/11 04:02:59;;;;;;;;;4.50;1.00;;;;;5.27;88.83;100943.50;5038448;28;45227;-78
2021/12/11 04:05:25;;;;;;;;;2.75;2.00;;;;;5.27;88.49;100956.56;5038664;28;45323;-77
2021/12/11 04:07:51;;;;;;;;;3.25;1.75;;;;;5.22;89.02;100953.03;5038350;28;46225;-77
2021/12/11 04:10:18;;;;;;;;;3.50;1.00;;;;;5.17;89.49;100954.75;5037992;28;45377;-77
2021/12/11 04:12:48;;;;;;;;;3.00;3.00;;;;;5.09;88.25;100941.69;5038184;28;45468;-77
2021/12/11 04:15:14;;;;;;;;;2.50;2.00;;;;;5.11;89.29;100957.34;5038346;28;45258;-77
2021/12/11 04:17:40;;;;;;;;;4.50;1.00;;;;;4.98;89.81;100944.28;5038082;28;45353;-77
2021/12/11 04:20:11;;;;;;;;;6.25;2.00;;;;;5.10;89.58;100963.44;5038013;28;45636;-78
2021/12/11 04:22:36;;;;;;;;;4.50;2.00;;;;;5.01;90.08;100954.72;5038092;28;45317;-77
2021/12/11 04:25:05;;;;;;;;;8.50;1.25;;;;;5.10;90.31;100972.16;5037990;28;45572;-77
2021/12/11 04:27:30;;;;;;;;;5.50;2.50;;;;;5.05;90.27;100969.53;5038108;28;46790;-79
2021/12/11 04:29:56;;;;;;;;;2.50;1.50;;;;;5.04;90.19;100973.00;5037895;28;45168;-77
2021/12/11 04:32:24;;;;;;;;;2.50;1.00;;;;;5.04;90.99;100977.34;5037875;28;45239;-77
2021/12/11 04:34:50;;;;;;;;;2.50;2.00;;;;;5.02;91.08;100977.31;5037830;28;45405;-77
2021/12/11 04:37:21;;;;;;;;;3.00;2.00;;;;;4.95;90.88;100961.66;5037827;28;46083;-76
2021/12/11 04:39:54;;;;;;;;;6.00;6.00;;;;;5.03;91.15;100978.22;5037875;28;45324;-77
2021/12/11 04:42:40;;;;;;;;;3.75;2.00;;;;;4.99;91.34;100977.31;5038054;28;45409;-77
2021/12/11 04:45:18;;;;;;;;;5.25;2.50;;;;;4.97;91.23;100986.88;5037735;28;45422;-77
2021/12/11 04:47:51;;;;;;;;;3.50;1.00;;;;;4.94;91.06;100986.00;5037359;28;46218;-77
2021/12/11 04:50:32;;;;;;;;;6.25;1.25;;;;;4.98;92.40;101001.69;5037506;28;45262;-77
2021/12/11 04:52:59;;;;;;;;;7.00;2.00;;;;;4.89;91.71;100991.19;5037752;28;45322;-76
2021/12/11 04:55:47;;;;;;;;;3.25;3.00;;;;;4.94;91.33;101004.25;5037750;28;45275;-77
2021/12/11 05:01:31;;;;;;;;;8.25;3.00;;;;;4.77;91.49;101005.06;5037259;28;45374;-77
2021/12/11 05:09:27;;;;;;;;;6.25;4.50;;;;;4.80;92.26;101028.53;5037309;28;45862;-77
2021/12/11 05:12:10;;;;;;;;;5.00;3.00;;;;;4.79;92.18;101038.97;5037116;28;45500;-78
2021/12/11 05:14:36;;;;;;;;;4.00;4.00;;;;;4.80;92.92;101057.25;5037315;28;45575;-77
2021/12/11 05:17:02;;;;;;;;;8.00;4.00;;;;;4.76;92.36;101052.84;5037606;28;45432;-77
2021/12/11 05:19:27;;;;;;;;;4.50;3.25;;;;;4.79;92.64;101055.50;5037102;28;46456;-77
2021/12/11 05:21:53;;;;;;;;;3.25;3.25;;;;;4.77;93.32;101057.22;5037248;28;45318;-77
2021/12/11 05:24:20;;;;;;;;;6.25;3.75;;;;;4.76;92.77;101058.06;5037518;28;45333;-77
2021/12/11 05:26:46;;;;;;;;;6.75;2.75;;;;;4.46;93.21;101009.19;5037295;28;45393;-77
2021/12/11 05:29:12;;;;;;;;;3.75;3.75;;;;;4.75;93.02;101060.69;5037189;28;45393;-77
2021/12/11 05:31:38;;;;;;;;;6.00;3.75;;;;;4.69;93.67;101051.97;5037131;28;45267;-77
2021/12/11 05:34:06;;;;;;;;;4.00;3.00;;;;;4.74;93.44;101062.44;5037136;28;45286;-77
2021/12/11 05:36:32;;;;;;;;;6.00;2.00;;;;;4.78;92.20;101065.91;5037295;28;45358;-76
2021/12/11 05:39:03;;;;;;;;;4.50;2.50;;;;;4.81;93.50;101069.44;5036795;28;46248;-77
2021/12/11 05:41:28;;;;;;;;;11.67;9.00;;;;;4.82;93.85;101078.13;5018945;28;45412;-77
2021/12/11 05:43:54;;;;;;;;;8.50;7.00;;;;;4.85;93.58;101083.34;5037037;28;45367;-77
2021/12/11 05:46:20;;;;;;;;;1.50;1.50;;;;;4.74;93.16;101066.78;5037189;28;45219;-77
2021/12/11 05:48:49;;;;;;;;;3.50;3.00;;;;;4.82;92.94;101091.16;5036923;28;46465;-76
2021/12/11 05:51:20;;;;;;;;;3.75;3.00;;;;;4.82;93.50;101093.75;5036698;28;45414;-77
2021/12/11 05:53:47;;;;;;;;;11.00;6.75;;;;;4.82;93.80;101101.59;5036903;28;45264;-77
2021/12/11 05:56:13;;;;;;;;;8.25;4.00;;;;;4.80;93.41;101101.59;5037091;28;45345;-77
2021/12/11 06:01:22;;;;;;;;;2.00;2.00;;;;;4.88;92.53;101125.13;5036711;28;45565;-76
2021/12/11 06:03:48;;;;;;;;;2.75;1.25;;;;;4.88;92.59;101127.75;5037049;28;45464;-76
2021/12/11 06:06:14;;;;;;;;;6.00;4.50;;;;;4.76;92.80;101112.00;5036886;28;45503;-76
2021/12/11 06:08:39;;;;;;;;;4.25;3.00;;;;;4.82;93.03;101127.69;5036662;28;46351;-75
2021/12/11 06:11:05;;;;;;;;;10.25;6.00;;;;;4.84;93.88;101132.06;5036362;28;45369;-75
2021/12/11 06:13:31;;;;;;;;;7.75;5.50;;;;;4.83;93.09;101135.53;5036790;28;45362;-76
2021/12/11 06:15:58;;;;;;;;;7.00;5.50;;;;;4.85;92.43;101145.97;5040213;28;45382;-76
2021/12/11 06:18:24;;;;;;;;;6.00;6.00;;;;;4.81;92.81;101144.22;5039893;28;46472;-76
2021/12/11 06:20:50;;;;;;;;;3.75;3.75;;;;;4.79;92.73;101144.22;5039613;28;45455;-77
2021/12/11 06:23:17;;;;;;;;;2.75;2.00;;;;;4.81;93.33;101160.72;5040204;28;45337;-75
2021/12/11 06:25:42;;;;;;;;;3.50;3.50;;;;;4.69;92.64;101142.38;5040025;28;45345;-77
2021/12/11 06:28:08;;;;;;;;;4.00;3.50;;;;;4.80;92.88;101166.81;5039819;28;45574;-77
2021/12/11 06:30:35;;;;;;;;;6.50;4.00;;;;;4.79;92.96;101167.69;5039684;28;45425;-76
2021/12/11 06:33:01;;;;;;;;;2.75;2.75;;;;;4.78;92.60;101178.97;5039780;28;45303;-77
2021/12/11 06:35:57;;;;;;;;;6.75;3.75;;;;;4.74;92.19;101181.56;5040011;28;45308;-77
2021/12/11 06:38:25;;;;;;;;;3.00;3.00;;;;;4.74;92.94;101198.06;5039615;28;45627;-77
2021/12/11 06:40:53;;;;;;;;;10.75;5.50;;;;;4.70;93.20;101180.63;5039526;28;45469;-76
2021/12/11 06:43:18;;;;;;;;;11.50;6.50;;;;;4.67;93.03;101184.09;5039669;28;45307;-78
2021/12/11 06:45:45;;;;;;;;;7.50;5.50;;;;;4.71;91.75;101200.66;5039973;28;45490;-77
2021/12/11 06:48:11;;;;;;;;;7.25;6.50;;;;;4.68;93.39;101209.31;5039442;28;45494;-76
2021/12/11 06:50:37;;;;;;;;;4.00;4.00;;;;;4.61;92.94;101196.22;5039408;28;45331;-77
2021/12/11 06:53:08;;;;;;;;;7.50;5.25;;;;;4.69;93.37;101212.78;5039798;28;45275;-77
2021/12/11 06:55:34;;;;;;;;;6.75;4.00;;;;;4.61;93.38;101199.69;5039599;28;45263;-76
2021/12/11 06:58:00;;;;;;;;;3.25;3.25;;;;;4.66;92.77;101228.41;5039256;28;45399;-77
2021/12/11 07:00:26;;;;;;;;;5.50;4.00;;;;;4.64;92.84;101223.19;5039007;28;45315;-77
2021/12/11 07:02:51;;;;;;;;;5.00;4.50;;;;;4.67;92.29;101238.88;5039526;28;45267;-76
2021/12/11 07:05:17;;;;;;;;;17.33;15.00;;;;;4.63;92.66;101231.00;5039768;28;45540;-77
2021/12/11 07:07:43;;;;;;;;;14.75;7.00;;;;;4.60;92.45;101230.97;5039281;28;45460;-77
2021/12/11 07:10:12;;;;;;;;;6.00;3.25;;;;;4.53;93.39;101223.09;5039162;28;45398;-77
2021/12/11 07:12:38;;;;;;;;;3.25;3.25;;;;;4.58;91.96;101237.91;5039402;28;45389;-77
2021/12/11 07:15:07;;;;;;;;;5.50;4.00;;;;;4.61;92.34;101251.84;5038891;28;45532;-77
2021/12/11 07:17:34;;;;;;;;;7.00;4.25;;;;;4.55;92.26;101248.31;5039029;28;46594;-76
2021/12/11 07:20:01;;;;;;;;;8.00;6.50;;;;;4.53;92.59;101256.09;5039098;28;45561;-76
2021/12/11 07:22:27;;;;;;;;;8.00;4.50;;;;;4.48;92.57;101243.03;5039028;28;45613;-77
2021/12/11 07:24:58;;;;;;;;;7.00;6.00;;;;;4.52;92.55;101262.19;5038583;28;45492;-76
2021/12/11 07:27:24;;;;;;;;;12.00;8.00;;;;;4.46;92.89;101256.91;5038830;28;46527;-76
2021/12/11 07:29:49;;;;;;;;;11.00;9.00;;;;;4.48;91.92;101260.41;5038806;28;45325;-76
2021/12/11 07:32:15;;;;;;;;;6.25;6.25;;;;;4.47;92.62;101263.88;5039320;28;45542;-77
2021/12/11 07:34:44;;;;;;;;;8.00;6.25;;;;;4.51;92.35;101287.38;5039124;28;45363;-76
2021/12/11 07:37:10;;;;;;;;;12.00;8.00;;;;;4.50;92.49;101292.59;5038891;28;46471;-77
2021/12/11 07:39:37;;;;;;;;;9.00;6.00;;;;;4.44;92.28;101292.53;5038608;28;45270;-77
2021/12/11 07:42:02;;;;;;;;;9.25;7.25;;;;;4.38;91.78;101275.06;5038497;28;45274;-77
2021/12/11 07:44:28;;;;;;;;;5.00;5.00;;;;;4.46;91.46;101302.13;5038975;28;45436;-76
2021/12/11 07:46:56;;;;;;;;;8.50;8.00;;;;;4.39;91.41;101295.09;5038530;28;46286;-76
2021/12/11 07:49:21;;;;;;;;;11.33;8.00;;;;;4.36;91.00;101295.06;5038756;28;45444;-77
2021/12/11 07:51:49;;;;;;;;;9.00;7.25;;;;;4.39;91.14;101308.13;5038734;28;45458;-76
2021/12/11 07:54:15;;;;;;;;;12.00;7.00;;;;;4.40;91.96;101314.19;5038628;28;45480;-76
2021/12/11 07:56:40;;;;;;;;;11.00;6.25;;;;;4.40;92.38;101314.19;5038250;28;47306;-77
2021/12/11 07:59:09;;;;;;;;;6.75;6.00;;;;;4.41;92.17;101311.59;5038313;28;45370;-76
2021/12/11 08:01:39;;;;;;;;;13.33;11.67;;;;;4.39;91.08;101312.47;5038377;28;45368;-76
2021/12/11 08:04:05;;;;;;;;;13.33;9.33;;;;;4.36;92.15;101311.56;5038420;28;45522;-77
2021/12/11 08:06:32;;;;;;;;;37.67;34.00;;;;;4.44;91.69;101321.19;5038139;28;45444;-76
2021/12/11 08:08:58;;;;;;;;;14.33;11.00;;;;;4.39;91.22;101322.91;5038245;28;45424;-76
2021/12/11 08:11:28;;;;;;;;;11.67;7.33;;;;;4.33;90.97;101319.34;5038050;28;45512;-76
2021/12/11 08:13:55;;;;;;;;;8.00;7.00;;;;;4.46;90.89;101341.22;5038147;28;45471;-76
2021/12/11 08:16:25;;;;;;;;;23.00;18.00;;;;;4.50;90.65;101345.63;5038239;28;46458;-77
2021/12/11 08:18:53;;;;;;;;;18.00;13.33;;;;;4.49;91.00;101348.22;5038009;28;45379;-76
2021/12/11 08:21:20;;;;;;;;;20.33;16.33;;;;;4.46;90.50;101341.22;5037807;28;45401;-76
2021/12/11 08:23:48;;;;;;;;;29.67;27.33;;;;;4.46;89.77;101349.06;5038416;28;45449;-76
2021/12/11 08:26:19;;;;;;;;;14.67;12.00;;;;;4.55;90.97;101370.91;5037705;28;46350;-77
2021/12/11 08:28:44;;;;;;;;;13.33;10.67;;;;;4.53;91.43;101370.84;5037923;28;45485;-76
2021/12/11 08:31:10;;;;;;;;;12.67;11.00;;;;;4.53;91.37;101366.53;5037979;28;45425;-77
2021/12/11 08:33:36;;;;;;;;;14.75;8.75;;;;;4.67;91.14;101386.66;5038097;28;45292;-77
2021/12/11 08:36:01;;;;;;;;;14.67;11.67;;;;;4.67;90.50;101386.66;5037111;28;46547;-76
2021/12/11 08:38:27;;;;;;;;;16.67;13.33;;;;;4.65;89.16;101378.84;5037386;28;45331;-77
2021/12/11 08:40:55;;;;;;;;;21.67;17.00;;;;;4.67;89.50;101397.97;5037968;28;45206;-76
2021/12/11 08:43:22;;;;;;;;;15.00;13.00;;;;;4.58;89.58;101386.56;5037841;28;45484;-77
2021/12/11 08:46:07;;;;;;;;;18.00;12.00;;;;;4.71;90.36;101404.13;5037322;28;45982;-77
2021/12/11 08:48:33;;;;;;;;;10.75;8.50;;;;;4.69;89.81;101397.97;5037433;28;45499;-77
2021/12/11 08:51:03;;;;;;;;;16.67;12.67;;;;;4.84;89.37;101406.00;5037753;28;45282;-77
2021/12/11 08:53:30;;;;;;;;;29.00;22.33;;;;;4.83;89.17;101399.03;5037979;28;45414;-78
2021/12/11 08:55:56;;;;;;;;;23.33;16.67;;;;;5.13;88.35;101417.63;5037425;28;45259;-77
2021/12/11 08:58:24;;;;;;;;;21.33;16.00;;;;;5.23;87.15;101411.66;5037554;28;45486;-77
2021/12/11 09:01:24;;;;;;;;;19.00;13.33;;;;;5.28;87.00;101416.91;5029253;28;45357;-77
2021/12/11 09:04:04;;;;;;;;;17.33;13.33;;;;;5.36;87.08;101423.09;4918155;28;45557;-77
2021/12/11 09:06:33;;;;;;;;;19.33;15.00;;;;;5.37;85.78;101433.56;4917474;28;47367;-77
2021/12/11 09:09:18;;;;;;;;;15.25;12.25;;;;;5.33;86.98;101442.22;4917694;28;45383;-77
2021/12/11 09:12:11;;;;;;;;;20.67;13.67;;;;;5.34;86.86;101436.09;4907507;28;45254;-77
2021/12/11 09:15:08;;;;;;;;;13.33;13.00;;;;;5.32;87.03;101439.59;4917657;28;45442;-77
2021/12/11 09:17:40;;;;;;;;;16.67;13.00;;;;;5.24;86.65;101442.09;4860455;29;45517;-76
2021/12/11 09:20:12;;;;;;;;;21.00;12.67;;;;;5.19;86.88;101435.97;4860534;29;45351;-74
2021/12/11 09:22:52;;;;;;;;;26.25;11.75;;;;;5.31;87.45;101462.19;4861136;29;45360;-74
2021/12/11 09:25:47;;;;;;;;;15.25;14.00;;;;;5.35;86.86;101461.38;4861391;29;45377;-74
2021/12/11 09:28:21;;;;;;;;;15.00;13.33;;;;;5.45;86.79;101462.34;4805276;29;45455;-70
2021/12/11 09:31:00;;;;;;;;;13.75;12.25;;;;;5.63;86.56;101474.69;4805420;29;45459;-74
2021/12/11 09:33:34;;;;;;;;;20.33;14.33;;;;;5.84;86.57;101462.66;4805394;29;45347;-74
2021/12/11 09:36:07;;;;;;;;;13.25;10.75;;;;;6.63;84.19;101479.81;4805636;29;45410;-75
2021/12/11 09:38:36;;;;;;;;;21.67;18.67;;;;;7.31;81.08;101483.56;4805294;29;47355;-78
2021/12/11 09:41:24;;;;;;;;;16.33;14.33;;;;;8.15;78.56;101481.91;4879922;29;45476;-77
2021/12/11 09:44:10;;;;;;;;;21.00;14.25;;;;;8.89;75.50;101481.75;4898203;28;45558;-75
2021/12/11 09:46:49;;;;;;;;;20.67;18.33;;;;;9.31;73.99;101488.56;4885314;28;45661;-77
2021/12/11 09:49:19;;;;;;;;;17.50;13.25;;;;;9.48;71.79;101485.84;4881710;29;45499;-73
2021/12/11 09:51:47;;;;;;;;;18.67;16.67;;;;;9.40;69.62;101478.88;4882495;29;45564;-76
2021/12/11 09:54:20;;;;;;;;;20.25;14.25;;;;;9.12;71.49;101477.28;4928682;28;45292;-74
2021/12/11 09:56:54;;;;;;;;;18.33;14.67;;;;;8.81;73.53;101480.91;4959340;28;45373;-74
2021/12/11 09:59:24;;;;;;;;;18.25;12.50;;;;;8.44;74.63;101483.66;4958263;28;46763;-75
2021/12/11 10:01:54;;;;;;;;;15.33;13.00;;;;;8.10;74.96;101486.28;4950807;28;45305;-75
2021/12/11 10:04:31;;;;;;;;;16.00;11.75;;;;;7.84;75.95;101489.78;4966773;28;45523;-74
2021/12/11 10:09:41;;;;;;;;;28.33;22.00;;;;;7.41;77.48;101494.97;5019173;28;45799;-76
2021/12/11 10:12:11;;;;;;;;;17.33;13.67;;;;;7.35;78.53;101500.19;5019422;28;45343;-74
2021/12/11 10:14:44;;;;;;;;;14.75;13.75;;;;;7.26;78.97;101506.28;5029846;28;45393;-72
2021/12/11 10:17:20;;;;;;;;;17.67;15.00;;;;;7.19;79.31;101509.75;5040036;28;45377;-72
2021/12/11 10:19:47;;;;;;;;;17.33;12.33;;;;;7.19;79.99;101504.50;5039709;28;46562;-72
2021/12/11 10:22:25;;;;;;;;;15.50;13.50;;;;;7.02;79.53;101469.53;5039668;28;45423;-72
2021/12/11 10:24:52;;;;;;;;;19.00;16.00;;;;;7.33;81.04;101494.06;5039516;28;45758;-75
2021/12/11 10:27:21;;;;;;;;;16.25;14.50;;;;;7.55;79.87;101501.97;5039881;28;45428;-76
2021/12/11 10:29:49;;;;;;;;;17.00;11.33;;;;;7.65;79.73;101501.13;5039276;28;47095;-75
2021/12/11 10:32:18;;;;;;;;;17.00;15.00;;;;;7.67;79.52;101487.16;5039653;28;45388;-75
2021/12/11 10:34:49;;;;;;;;;24.00;18.00;;;;;7.86;80.43;101508.13;5039888;28;45377;-76
2021/12/11 10:37:19;;;;;;;;;15.50;11.00;;;;;7.86;78.20;101502.91;5039418;28;45468;-74
2021/12/11 10:39:50;;;;;;;;;19.75;13.25;;;;;7.85;79.19;101509.88;5039513;28;45671;-72
2021/12/11 10:42:15;;;;;;;;;42.67;33.00;;;;;7.89;78.22;101520.38;5039391;28;45450;-77
2021/12/11 10:44:45;;;;;;;;;38.00;30.00;;;;;7.78;78.90;101505.50;5039762;28;45315;-77
2021/12/11 10:47:15;;;;;;;;;18.33;17.67;;;;;7.84;78.33;101512.50;5039753;28;45330;-76
2021/12/11 10:49:42;;;;;;;;;14.33;11.67;;;;;7.75;78.58;101517.75;5039112;28;46445;-75
2021/12/11 10:52:14;;;;;;;;;16.50;13.25;;;;;7.69;79.22;101528.22;5039488;28;45251;-76
2021/12/11 10:54:40;;;;;;;;;16.25;14.00;;;;;7.59;80.38;101529.94;5039522;28;45374;-75
2021/12/11 10:57:06;;;;;;;;;13.50;12.00;;;;;7.59;80.30;101530.81;5039445;28;45374;-76
2021/12/11 10:59:34;;;;;;;;;13.00;13.00;;;;;7.45;79.81;101516.78;5038205;28;46011;-76
2021/12/11 11:02:06;;;;;;;;;17.00;12.67;;;;;7.55;80.20;101536.03;5039104;28;45383;-78
2021/12/11 11:04:40;;;;;;;;;12.00;11.00;;;;;7.52;80.98;101534.28;5039146;28;45529;-78
2021/12/11 11:07:07;;;;;;;;;13.50;11.00;;;;;7.47;80.95;101521.16;5039568;28;45314;-78
2021/12/11 11:09:32;;;;;;;;;16.50;12.25;;;;;7.58;80.60;101539.56;5039134;28;46158;-78
2021/12/11 11:12:01;;;;;;;;;20.33;15.00;;;;;7.54;80.75;101527.31;5037786;28;45397;-78
2021/12/11 11:14:30;;;;;;;;;20.33;15.33;;;;;7.71;81.46;101534.31;5038890;28;45300;-78
2021/12/11 11:17:00;;;;;;;;;18.00;10.50;;;;;7.79;81.90;101546.56;5039240;28;45469;-78
2021/12/11 11:19:28;;;;;;;;;12.00;9.50;;;;;7.77;80.89;101522.13;5040951;28;45301;-77
2021/12/11 11:22:00;;;;;;;;;21.33;14.33;;;;;7.93;80.81;101540.47;5057752;28;45435;-77
2021/12/11 11:24:30;;;;;;;;;19.00;16.00;;;;;8.00;81.38;101545.75;5059192;28;45254;-77
2021/12/11 11:26:57;;;;;;;;;17.33;13.33;;;;;7.98;80.60;101533.50;5059418;28;45433;-77
2021/12/11 11:29:26;;;;;;;;;16.25;10.00;;;;;8.16;80.98;101541.38;5058931;28;46402;-76
2021/12/11 11:31:56;;;;;;;;;26.33;19.00;;;;;8.29;80.53;101555.38;5058844;28;45361;-77
2021/12/11 11:34:26;;;;;;;;;16.50;10.00;;;;;8.39;79.83;101545.72;5058088;28;45757;-77
2021/12/11 11:36:54;;;;;;;;;9.00;8.50;;;;;8.52;79.80;101547.50;5058274;28;45426;-78
2021/12/11 11:39:23;;;;;;;;;10.00;10.00;;;;;8.60;79.26;101542.25;5058558;28;45495;-76
2021/12/11 11:41:55;;;;;;;;;11.50;10.75;;;;;8.66;79.22;101534.34;5057852;28;45253;-78
2021/12/11 11:44:24;;;;;;;;;12.00;8.75;;;;;8.75;78.67;101532.59;5058586;28;45428;-78
2021/12/11 11:46:54;;;;;;;;;20.67;18.00;;;;;8.73;78.22;101515.94;5050130;28;45344;-77
2021/12/11 11:49:20;;;;;;;;;13.67;12.00;;;;;8.86;78.41;101533.44;5051350;28;46719;-77
2021/12/11 11:51:54;;;;;;;;;14.50;9.50;;;;;8.81;78.44;101517.66;5038180;28;45395;-76
2021/12/11 11:54:23;;;;;;;;;12.75;10.00;;;;;8.84;78.43;101529.94;5038268;28;45444;-75
2021/12/11 11:57:00;;;;;;;;;10.75;6.75;;;;;8.81;77.39;101528.19;5038805;28;45235;-77